Weather reports worldwide

Advertisment
Bealach, United Kingdom (3039): temperature & dewpoint: 19.01.2017 01:00:00 - 25.01.2017 01:00:00 (GMT)Bealach, United Kingdom (3039): wind speed & gusts: 19.01.2017 01:00:00 - 25.01.2017 01:00:00 (GMT)Bealach, United Kingdom (3039): wind direction: 19.01.2017 01:00:00 - 25.01.2017 01:00:00 (GMT)
Date & Time tt [°C] td [°C] ff [km/h] ff [kn] fx [km/h] fx [kn] dd
25.01.2017 01:00:00 5,6 5,6 76 41 100 54 SSW
25.01.2017 00:00:00 5,5 5,5 76 41 109 59 SSW
24.01.2017 23:00:00 5,1 5,1 57 31 109 59 S
24.01.2017 22:00:00 4,8 4,8 59 32 107 58 SSW
24.01.2017 21:00:00 4,2 4,2 89 48 113 61 SSW
24.01.2017 20:00:00 5,1 5,1 48 26 72 39 S
24.01.2017 19:00:00 4,4 4,4 57 31 80 43 S
24.01.2017 18:00:00 3,5 3,5 59 32 93 50 S
24.01.2017 17:00:00 3,4 3,4 72 39 93 50 S
24.01.2017 16:00:00 3,3 3,3 74 40 - - SSW
24.01.2017 15:00:00 3,4 3,4 59 32 76 41 SSW
24.01.2017 14:00:00 3,4 3,4 29 16 72 39 S
24.01.2017 13:00:00 3,6 3,6 37 20 76 41 S
24.01.2017 12:00:00 3,7 3,7 46 25 96 52 S
24.01.2017 11:00:00 3,6 3,6 59 32 89 48 SSW
24.01.2017 10:00:00 3,7 3,7 72 39 89 48 SSW
24.01.2017 09:00:00 3,8 3,8 70 38 - - SSW
24.01.2017 08:00:00 3,8 3,8 74 40 100 54 SSW
24.01.2017 07:00:00 3,8 3,8 78 42 109 59 SW
24.01.2017 06:00:00 3,5 3,5 81 44 96 52 SSW
24.01.2017 05:00:00 3,0 3,0 78 42 100 54 SSW
24.01.2017 04:00:00 2,9 2,9 83 45 100 54 SSW
24.01.2017 03:00:00 2,5 2,5 61 33 91 49 S
24.01.2017 02:00:00 1,7 1,7 57 31 87 47 S
24.01.2017 01:00:00 1,7 1,7 50 27 87 47 S
24.01.2017 00:00:00 1,8 1,8 48 26 83 45 S
23.01.2017 23:00:00 1,9 1,9 48 26 96 52 SSW
23.01.2017 22:00:00 1,6 1,6 39 21 81 44 S
23.01.2017 21:00:00 1,1 1,1 41 22 91 49 S
23.01.2017 20:00:00 1,0 1,0 52 28 80 43 S
23.01.2017 19:00:00 1,3 1,3 34 18 80 43 S
23.01.2017 18:00:00 1,0 1,0 44 24 74 40 S
23.01.2017 17:00:00 0,5 0,5 34 18 68 37 S
23.01.2017 16:00:00 0,5 0,3 46 25 76 41 SSW
23.01.2017 15:00:00 0,3 0,3 48 26 76 41 S
23.01.2017 14:00:00 -0,3 -0,9 46 25 65 35 S
23.01.2017 13:00:00 -0,8 -3,8 48 26 65 35 S
23.01.2017 12:00:00 -1,7 -4,6 46 25 54 29 SSE
23.01.2017 11:00:00 -2,0 -3,2 35 19 48 26 SSE
23.01.2017 10:00:00 -1,8 -3,0 34 18 46 25 SSE
23.01.2017 09:00:00 -2,0 -2,0 21 11 48 26 S
23.01.2017 08:00:00 -2,1 -2,2 41 22 52 28 SSW
23.01.2017 07:00:00 -1,8 -2,0 34 18 48 26 SSW
23.01.2017 06:00:00 -1,4 -1,4 42 23 50 27 SSW
23.01.2017 05:00:00 -0,5 -0,5 37 20 46 25 SSW
23.01.2017 04:00:00 -0,8 -0,8 39 21 52 28 SSW
23.01.2017 03:00:00 -0,5 -0,5 35 19 46 25 SSW
23.01.2017 02:00:00 -0,1 -0,1 37 20 46 25 SSW
23.01.2017 01:00:00 0,2 0,2 31 17 - - SSW
23.01.2017 00:00:00 0,0 0,0 22 12 - - SSW
22.01.2017 23:00:00 -0,4 -0,4 16 9 - - SW
22.01.2017 22:00:00 -0,4 -0,4 15 8 - - WSW
22.01.2017 21:00:00 -0,1 -0,1 26 14 - - SW
22.01.2017 20:00:00 -0,1 -0,1 28 15 - - SW
22.01.2017 19:00:00 -0,2 -0,2 29 16 - - SW
22.01.2017 18:00:00 -0,4 -0,4 31 17 - - SW
22.01.2017 17:00:00 -0,4 -0,4 26 14 - - SW
22.01.2017 16:00:00 -0,5 -0,5 26 14 - - SW
22.01.2017 15:00:00 -0,8 -0,8 22 12 - - SW
22.01.2017 14:00:00 -0,7 -0,7 21 11 - - SW
22.01.2017 13:00:00 -0,8 -0,8 18 10 - - SSW
22.01.2017 12:00:00 -1,3 -1,3 11 6 - - SSW
22.01.2017 11:00:00 -1,1 -1,1 13 7 - - SSW
22.01.2017 10:00:00 -1,0 -1,0 8 4 - - SSW
22.01.2017 09:00:00 -1,0 -1,0 8 4 - - SSW
22.01.2017 08:00:00 -1,4 -1,4 8 4 - - S
22.01.2017 07:00:00 -1,8 -2,1 9 5 - - S
22.01.2017 06:00:00 -1,5 -2,2 9 5 - - S
22.01.2017 05:00:00 -1,4 -2,2 15 8 - - S
22.01.2017 04:00:00 -1,5 -2,2 21 11 - - S
22.01.2017 03:00:00 -1,8 -2,2 24 13 - - S
22.01.2017 02:00:00 -1,8 -2,1 22 12 - - S
22.01.2017 01:00:00 -1,6 -2,0 29 16 48 26 S
22.01.2017 00:00:00 -1,6 -1,8 37 20 52 28 S
21.01.2017 23:00:00 -1,6 -1,6 44 24 59 32 SSW
21.01.2017 22:00:00 -1,4 -2,4 31 17 52 28 SSW
21.01.2017 21:00:00 -1,5 -2,6 31 17 46 25 S
21.01.2017 20:00:00 -1,5 -2,7 31 17 52 28 S
21.01.2017 19:00:00 -1,5 -2,5 35 19 - - SSW
21.01.2017 18:00:00 -0,8 -2,7 35 19 - - SSW
21.01.2017 17:00:00 0,8 -2,8 39 21 52 28 S
21.01.2017 16:00:00 0,5 -2,3 34 18 50 27 S
21.01.2017 15:00:00 1,2 -2,4 35 19 48 26 S
21.01.2017 14:00:00 1,0 -2,6 28 15 50 27 S
21.01.2017 13:00:00 0,2 -6,0 37 20 52 28 S
21.01.2017 12:00:00 -0,4 -6,4 37 20 65 35 S
21.01.2017 11:00:00 -0,9 -6,4 54 29 68 37 S
21.01.2017 10:00:00 -2,0 -5,4 39 21 63 34 S
21.01.2017 09:00:00 -1,4 -2,9 46 25 63 34 S
21.01.2017 08:00:00 -1,1 -1,1 35 19 50 27 S
21.01.2017 07:00:00 -0,8 -0,8 35 19 55 30 SSW
21.01.2017 06:00:00 -0,7 -0,7 37 20 57 31 S
21.01.2017 05:00:00 -0,2 -0,2 41 22 48 26 SSW
21.01.2017 04:00:00 -0,1 -0,1 37 20 67 36 S
21.01.2017 03:00:00 -0,3 -0,3 44 24 65 35 S
21.01.2017 02:00:00 -0,3 -0,3 46 25 54 29 S
21.01.2017 01:00:00 -0,1 -0,1 37 20 48 26 SSW
21.01.2017 00:00:00 0,7 0,0 16 9 - - S
20.01.2017 23:00:00 3,1 0,2 18 10 - - SSE
20.01.2017 22:00:00 4,4 1,2 11 6 - - SE
20.01.2017 21:00:00 4,3 1,0 11 6 - - SE
20.01.2017 20:00:00 5,6 4,0 11 6 - - SE
20.01.2017 19:00:00 5,7 5,3 18 10 - - SE
20.01.2017 18:00:00 6,2 5,8 21 11 - - SSE
20.01.2017 17:00:00 4,9 4,8 18 10 - - SSE
20.01.2017 16:00:00 5,1 5,1 15 8 - - SSE
20.01.2017 15:00:00 5,6 5,5 18 10 - - SSE
20.01.2017 14:00:00 3,7 3,7 13 7 - - SSE
20.01.2017 13:00:00 4,2 4,2 9 5 - - SSE
20.01.2017 12:00:00 2,9 2,9 13 7 - - S
20.01.2017 11:00:00 5,8 5,8 11 6 - - WSW
20.01.2017 10:00:00 3,8 3,8 18 10 - - SW
20.01.2017 09:00:00 -0,1 -0,1 24 13 - - SSW
20.01.2017 08:00:00 -0,1 -0,1 21 11 - - SSW
20.01.2017 07:00:00 -0,1 -0,1 28 15 - - S
20.01.2017 06:00:00 0,1 0,1 34 18 - - S
20.01.2017 05:00:00 0,4 0,4 29 16 - - SSW
20.01.2017 04:00:00 0,6 0,6 34 18 46 25 SSW
20.01.2017 03:00:00 1,2 1,2 39 21 48 26 SSW
20.01.2017 02:00:00 1,3 1,3 39 21 48 26 SSW
20.01.2017 01:00:00 1,5 1,5 37 20 - - SSW
20.01.2017 00:00:00 1,7 1,7 39 21 46 25 SSW
19.01.2017 23:00:00 2,0 2,0 37 20 46 25 SSW
19.01.2017 22:00:00 2,3 2,3 41 22 48 26 SW
19.01.2017 21:00:00 2,4 2,4 42 23 52 28 SW
19.01.2017 20:00:00 2,4 2,4 44 24 54 29 SSW
19.01.2017 19:00:00 2,8 2,6 41 22 52 28 SSW
19.01.2017 18:00:00 2,8 -19,8 42 23 52 28 SW
19.01.2017 17:00:00 2,9 - 41 22 54 29 SW
19.01.2017 16:00:00 3,0 - 42 23 52 28 SW
19.01.2017 15:00:00 3,2 - 39 21 57 31 SW
19.01.2017 14:00:00 3,2 - 48 26 57 31 SSW
19.01.2017 13:00:00 3,2 - 44 24 55 30 SW
19.01.2017 12:00:00 3,1 - 44 24 57 31 SW
19.01.2017 11:00:00 3,1 - 50 27 61 33 SSW
19.01.2017 10:00:00 3,0 - 46 25 57 31 SSW
19.01.2017 09:00:00 2,9 - 46 25 55 30 SW
19.01.2017 08:00:00 2,7 - 42 23 63 34 SSW
19.01.2017 07:00:00 2,9 - 50 27 61 33 SSW
19.01.2017 06:00:00 3,1 - 44 24 61 33 SW
19.01.2017 05:00:00 3,1 - 44 24 63 34 SSW
19.01.2017 04:00:00 3,2 - 52 28 67 36 SSW
19.01.2017 03:00:00 3,4 - 52 28 76 41 SSW
19.01.2017 02:00:00 3,5 - 63 34 76 41 SSW
19.01.2017 01:00:00 3,6 - 65 35 80 43 SSW

tt = temperature
td = dewpoint
ff = wind speed
fx = gusts
dd = wind direction

Next stations